Time;durP1;ratioP1;P1;durP2;ratioP2;P2;SDS_P1;SDS_P2;PMS_P1;PMS_P2;Temp;Humidity;BMP_temperature;BMP_pressure;BME280_temperature;BME280_humidity;BME280_pressure;Samples;Min_cycle;Max_cycle;Signal;HPM_P1;HPM_P2
2024/01/15 00:01:52;;;;;;;27.23;10.75;;;2.00;67.10;;;;;;2281204;55;20940;-67
2024/01/15 00:04:18;;;;;;;25.80;9.25;;;2.10;67.10;;;;;;2280493;55;20960;-66
2024/01/15 00:06:45;;;;;;;30.52;11.00;;;2.10;67.70;;;;;;2277731;55;20996;-65
2024/01/15 00:09:12;;;;;;;27.92;10.13;;;2.20;67.10;;;;;;2277274;55;20960;-66
2024/01/15 00:11:39;;;;;;;33.63;11.10;;;2.30;67.10;;;;;;2277460;55;21076;-65
2024/01/15 00:14:05;;;;;;;25.58;9.50;;;2.30;67.00;;;;;;2277314;56;20980;-66
2024/01/15 00:16:32;;;;;;;29.70;10.60;;;2.40;67.10;;;;;;2277561;55;21032;-64
2024/01/15 00:19:01;;;;;;;28.02;10.23;;;2.40;67.10;;;;;;2510171;55;20945;-66
2024/01/15 00:21:27;;;;;;;27.30;10.27;;;2.50;67.10;;;;;;2509000;54;21012;-65
2024/01/15 00:23:57;;;;;;;23.58;8.35;;;2.50;67.00;;;;;;2508746;54;21461;-67
2024/01/15 00:26:23;;;;;;;27.08;9.95;;;2.50;67.00;;;;;;2280924;55;22559;-66
2024/01/15 00:28:49;;;;;;;33.35;10.35;;;2.60;66.90;;;;;;2281204;54;21012;-66
2024/01/15 00:31:17;;;;;;;29.73;9.93;;;2.60;66.80;;;;;;2276971;55;21076;-64
2024/01/15 00:33:43;;;;;;;29.50;9.77;;;2.70;67.00;;;;;;2508441;54;20988;-67
2024/01/15 00:36:10;;;;;;;28.20;9.63;;;2.70;66.90;;;;;;2277080;55;21481;-65
2024/01/15 00:38:36;;;;;;;23.35;8.45;;;2.70;66.80;;;;;;2277335;56;21031;-65
2024/01/15 00:41:02;;;;;;;22.83;8.82;;;2.80;66.90;;;;;;2277239;56;20965;-67
2024/01/15 00:43:29;;;;;;;26.08;9.65;;;2.80;66.80;;;;;;2277887;56;21052;-66
2024/01/15 00:45:55;;;;;;;27.90;10.02;;;2.80;66.80;;;;;;2277631;55;20964;-67
2024/01/15 00:48:22;;;;;;;23.75;8.85;;;2.90;66.80;;;;;;2277646;56;20988;-66
2024/01/15 00:50:48;;;;;;;23.55;8.80;;;2.90;66.80;;;;;;2277837;56;21810;-67
2024/01/15 00:53:15;;;;;;;26.87;9.73;;;2.90;66.70;;;;;;2277140;56;20981;-66
2024/01/15 00:55:41;;;;;;;26.92;9.40;;;2.90;66.70;;;;;;2511810;54;21569;-66
2024/01/15 00:58:07;;;;;;;25.50;9.55;;;3.00;66.70;;;;;;2511228;53;20968;-67
2024/01/15 01:00:34;;;;;;;24.58;8.77;;;3.00;66.70;;;;;;2510055;55;20952;-66
2024/01/15 01:03:00;;;;;;;26.05;9.18;;;3.00;66.60;;;;;;2276547;56;21205;-67
2024/01/15 01:05:27;;;;;;;23.70;8.68;;;3.00;66.50;;;;;;2512306;53;20958;-67
2024/01/15 01:07:53;;;;;;;22.87;7.72;;;3.00;66.40;;;;;;2277826;54;21007;-66
2024/01/15 01:10:20;;;;;;;21.80;7.87;;;3.10;66.50;;;;;;2281607;55;20975;-67
2024/01/15 01:12:46;;;;;;;23.85;9.00;;;3.10;66.50;;;;;;2512667;54;20992;-66
2024/01/15 01:15:14;;;;;;;22.50;8.93;;;3.10;66.50;;;;;;2282038;55;21005;-67
2024/01/15 01:17:41;;;;;;;27.30;8.90;;;3.10;66.40;;;;;;2278015;56;20944;-66
2024/01/15 01:20:10;;;;;;;23.87;8.93;;;3.10;66.40;;;;;;2277181;56;21036;-65
2024/01/15 01:22:37;;;;;;;20.95;8.57;;;3.20;66.60;;;;;;2274713;56;20956;-68
2024/01/15 01:25:04;;;;;;;23.73;8.80;;;3.20;66.50;;;;;;2509000;54;20945;-67
2024/01/15 01:27:31;;;;;;;22.13;8.68;;;3.20;66.50;;;;;;2277751;56;20932;-66
2024/01/15 01:29:57;;;;;;;20.40;7.93;;;3.20;66.40;;;;;;2277046;55;21339;-65
2024/01/15 01:32:23;;;;;;;25.80;9.18;;;3.20;66.30;;;;;;2509282;55;20953;-66
2024/01/15 01:34:50;;;;;;;22.98;9.25;;;3.20;66.20;;;;;;2277921;55;21650;-67
2024/01/15 01:37:16;;;;;;;22.30;8.45;;;3.30;66.20;;;;;;2509016;54;21017;-67
2024/01/15 01:39:43;;;;;;;24.10;9.70;;;3.30;66.10;;;;;;2277697;56;20932;-65
2024/01/15 01:42:10;;;;;;;27.52;10.10;;;3.20;65.90;;;;;;2276872;56;20999;-65
2024/01/15 01:44:40;;;;;;;29.55;11.18;;;3.20;65.80;;;;;;2277432;56;21490;-67
2024/01/15 01:47:06;;;;;;;29.67;10.82;;;3.30;65.80;;;;;;2275952;55;21981;-65
2024/01/15 01:49:38;;;;;;;26.55;10.23;;;3.20;65.70;;;;;;2510617;54;20977;-66
2024/01/15 01:52:05;;;;;;;29.65;10.95;;;3.20;65.60;;;;;;2512298;53;21502;-66
2024/01/15 01:54:31;;;;;;;27.23;11.68;;;3.20;65.50;;;;;;2284399;55;21068;-65
2024/01/15 01:56:58;;;;;;;29.35;11.38;;;3.20;65.50;;;;;;2509591;54;21422;-65
2024/01/15 01:59:26;;;;;;;28.73;11.48;;;3.20;65.50;;;;;;2277977;55;20991;-67
2024/01/15 02:01:54;;;;;;;25.33;10.48;;;3.20;65.30;;;;;;2283371;55;21377;-66
2024/01/15 02:04:24;;;;;;;29.58;11.38;;;3.20;65.30;;;;;;2277831;55;21013;-65
2024/01/15 02:06:51;;;;;;;30.20;11.63;;;3.10;65.20;;;;;;2509739;54;21580;-66
2024/01/15 02:09:19;;;;;;;25.65;10.25;;;3.10;65.20;;;;;;2276986;55;21003;-66
2024/01/15 02:11:48;;;;;;;29.77;10.88;;;3.10;65.30;;;;;;2283412;56;20985;-65
2024/01/15 02:14:14;;;;;;;27.65;10.90;;;3.10;65.20;;;;;;2510502;54;21008;-66
2024/01/15 02:16:41;;;;;;;26.83;10.45;;;3.10;65.30;;;;;;2278831;56;20964;-65
2024/01/15 02:19:07;;;;;;;29.05;12.18;;;3.10;65.20;;;;;;2277229;55;21023;-66
2024/01/15 02:21:34;;;;;;;30.88;11.55;;;3.10;65.30;;;;;;2509270;54;20963;-67
2024/01/15 02:24:00;;;;;;;28.85;12.63;;;3.10;65.40;;;;;;2277775;55;20988;-67
2024/01/15 02:26:28;;;;;;;24.45;11.23;;;3.10;65.40;;;;;;2509182;55;20945;-67
2024/01/15 02:28:54;;;;;;;32.72;12.57;;;3.10;65.50;;;;;;2509822;54;21021;-66
2024/01/15 02:31:20;;;;;;;31.80;13.98;;;3.10;65.50;;;;;;2509093;54;22113;-66
2024/01/15 02:33:47;;;;;;;29.42;12.27;;;3.10;65.60;;;;;;2510000;55;21016;-65
2024/01/15 02:36:13;;;;;;;30.20;12.40;;;3.10;65.60;;;;;;2276863;56;20960;-66
2024/01/15 02:38:41;;;;;;;27.10;11.27;;;3.10;65.50;;;;;;2282484;55;21041;-66
2024/01/15 02:41:08;;;;;;;29.90;12.23;;;3.10;65.50;;;;;;2277753;55;20956;-66
2024/01/15 02:43:35;;;;;;;29.05;11.85;;;3.10;65.40;;;;;;2277390;56;20957;-66
2024/01/15 02:46:01;;;;;;;36.45;14.57;;;3.00;65.30;;;;;;2277162;56;20992;-66
2024/01/15 02:48:27;;;;;;;30.88;13.93;;;3.10;65.40;;;;;;2277189;56;21047;-65
2024/01/15 02:50:54;;;;;;;34.03;14.77;;;3.00;65.30;;;;;;2277315;55;21068;-67
2024/01/15 02:53:21;;;;;;;34.42;14.32;;;3.10;65.40;;;;;;2509112;54;21431;-66
2024/01/15 02:55:47;;;;;;;34.22;14.18;;;3.00;65.20;;;;;;2277759;56;20952;-67
2024/01/15 02:58:15;;;;;;;33.05;14.73;;;3.00;65.20;;;;;;2277040;56;20952;-65
2024/01/15 03:00:42;;;;;;;36.97;14.85;;;3.00;65.10;;;;;;2277480;56;21815;-67
2024/01/15 03:03:09;;;;;;;34.08;13.55;;;3.00;65.00;;;;;;2508861;55;21679;-65
2024/01/15 03:05:36;;;;;;;36.42;14.07;;;3.00;65.00;;;;;;2276892;55;20940;-65
2024/01/15 03:08:03;;;;;;;31.90;14.10;;;3.00;65.10;;;;;;2278065;55;20983;-67
2024/01/15 03:10:30;;;;;;;30.80;12.40;;;2.90;65.80;;;;;;2513313;53;21081;-66
2024/01/15 03:12:57;;;;;;;31.73;13.50;;;2.90;65.10;;;;;;2277286;55;20941;-64
2024/01/15 03:15:24;;;;;;;29.75;12.10;;;2.90;65.10;;;;;;2275766;56;21008;-65
2024/01/15 03:17:51;;;;;;;31.40;13.05;;;2.90;65.20;;;;;;2281857;54;21581;-67
2024/01/15 03:20:17;;;;;;;32.03;13.18;;;2.90;65.30;;;;;;2277749;55;21481;-65
2024/01/15 03:22:44;;;;;;;31.95;13.23;;;2.90;65.30;;;;;;2509263;54;20952;-65
2024/01/15 03:25:13;;;;;;;24.95;10.95;;;2.90;66.10;;;;;;2276004;55;21095;-65
2024/01/15 03:27:40;;;;;;;32.58;12.40;;;2.90;65.40;;;;;;2509583;54;20960;-67
2024/01/15 03:30:08;;;;;;;29.33;12.85;;;2.90;65.40;;;;;;2509183;55;20930;-65
2024/01/15 03:32:35;;;;;;;31.27;12.18;;;2.90;65.50;;;;;;2277750;55;20940;-66
2024/01/15 03:35:01;;;;;;;30.67;12.52;;;2.90;65.50;;;;;;2277589;56;21457;-66
2024/01/15 03:37:27;;;;;;;29.85;12.68;;;2.90;65.60;;;;;;2276682;56;21604;-66
2024/01/15 03:39:54;;;;;;;32.88;13.13;;;2.90;65.60;;;;;;2277004;55;20990;-65
2024/01/15 03:42:20;;;;;;;38.97;13.98;;;2.90;65.60;;;;;;2519887;53;20951;-66
2024/01/15 03:44:47;;;;;;;29.02;12.32;;;3.00;65.70;;;;;;2519797;54;21001;-67
2024/01/15 03:47:15;;;;;;;32.38;13.07;;;3.00;65.60;;;;;;2277102;55;21016;-65
2024/01/15 03:49:42;;;;;;;32.85;14.02;;;3.00;65.60;;;;;;2277345;55;21365;-67
2024/01/15 03:52:08;;;;;;;34.63;13.75;;;3.00;65.50;;;;;;2510873;54;21030;-66
2024/01/15 03:54:34;;;;;;;31.50;14.15;;;3.00;65.60;;;;;;2280059;54;21378;-67
2024/01/15 03:57:01;;;;;;;34.15;13.95;;;3.00;65.40;;;;;;2278249;56;21008;-65
2024/01/15 03:59:27;;;;;;;37.90;14.45;;;3.00;65.40;;;;;;2277081;55;21030;-67
2024/01/15 04:01:54;;;;;;;41.13;15.65;;;3.00;65.40;;;;;;2510257;55;20948;-67
2024/01/15 04:04:20;;;;;;;35.40;14.52;;;3.00;65.40;;;;;;2277178;56;20936;-67
2024/01/15 04:06:46;;;;;;;33.00;12.88;;;2.90;65.30;;;;;;2509578;54;20999;-66
2024/01/15 04:09:13;;;;;;;33.92;13.90;;;3.00;65.40;;;;;;2509075;54;21024;-66
2024/01/15 04:11:40;;;;;;;34.50;14.52;;;3.00;65.40;;;;;;2509553;54;21523;-66
2024/01/15 04:14:07;;;;;;;35.50;14.43;;;3.00;65.40;;;;;;2277580;56;21028;-66
2024/01/15 04:16:33;;;;;;;37.30;14.85;;;3.00;65.40;;;;;;2277007;55;21819;-67
2024/01/15 04:18:59;;;;;;;37.95;14.43;;;3.00;65.40;;;;;;2277037;56;20948;-65
2024/01/15 04:21:28;;;;;;;38.22;15.65;;;2.90;65.40;;;;;;2282140;55;20962;-67
2024/01/15 04:23:54;;;;;;;31.75;13.98;;;3.00;65.50;;;;;;2285791;55;20966;-67
2024/01/15 04:26:22;;;;;;;31.95;12.27;;;3.00;65.60;;;;;;2277074;56;21008;-67
2024/01/15 04:28:48;;;;;;;27.62;11.88;;;3.00;65.70;;;;;;2276986;56;20963;-66
2024/01/15 04:31:29;;;;;;;30.45;11.77;;;3.00;65.70;;;;;;2276526;55;21060;-65
2024/01/15 04:33:55;;;;;;;30.98;11.93;;;3.00;65.70;;;;;;2509727;55;21075;-66
2024/01/15 04:36:21;;;;;;;27.30;11.38;;;3.00;65.80;;;;;;2509050;55;20928;-67
2024/01/15 04:38:48;;;;;;;33.88;13.80;;;3.00;65.90;;;;;;2509973;55;20952;-66
2024/01/15 04:41:14;;;;;;;33.10;13.00;;;3.00;65.90;;;;;;2277221;55;20941;-67
2024/01/15 04:43:42;;;;;;;30.95;13.20;;;3.10;66.00;;;;;;2277010;55;20954;-66
2024/01/15 04:46:08;;;;;;;32.65;13.45;;;3.10;66.10;;;;;;2277629;56;21783;-67
2024/01/15 04:48:34;;;;;;;40.28;14.75;;;3.10;66.10;;;;;;2283128;54;20997;-66
2024/01/15 04:51:01;;;;;;;36.72;13.98;;;3.10;66.10;;;;;;2509892;54;21023;-65
2024/01/15 04:53:27;;;;;;;32.83;12.77;;;3.20;66.20;;;;;;2277113;56;20948;-66
2024/01/15 04:55:53;;;;;;;29.00;11.98;;;3.20;66.20;;;;;;2277407;55;20968;-65
2024/01/15 04:58:20;;;;;;;29.98;11.35;;;3.20;66.30;;;;;;2276800;56;21240;-66
2024/01/15 05:00:46;;;;;;;29.90;11.95;;;3.20;66.30;;;;;;2509790;54;20969;-65
2024/01/15 05:03:12;;;;;;;24.80;11.10;;;3.30;66.30;;;;;;2509060;54;20986;-67
2024/01/15 05:05:39;;;;;;;27.00;10.93;;;3.30;66.30;;;;;;2277962;56;20964;-65
2024/01/15 05:08:05;;;;;;;26.02;11.15;;;3.30;66.30;;;;;;2276944;55;20936;-66
2024/01/15 05:10:32;;;;;;;23.87;10.45;;;3.40;66.40;;;;;;2508723;55;21417;-67
2024/01/15 05:12:58;;;;;;;22.10;9.60;;;3.40;66.40;;;;;;2281151;55;21057;-66
2024/01/15 05:15:24;;;;;;;24.80;10.25;;;3.40;66.40;;;;;;2277473;55;20972;-65
2024/01/15 05:17:50;;;;;;;23.87;10.00;;;3.50;66.50;;;;;;2281122;55;20941;-67
2024/01/15 05:20:17;;;;;;;20.98;8.20;;;3.50;66.50;;;;;;2279903;54;20956;-65
2024/01/15 05:22:43;;;;;;;19.58;8.05;;;3.50;66.40;;;;;;2277350;55;21025;-65
2024/01/15 05:25:09;;;;;;;20.48;9.10;;;3.50;66.40;;;;;;2510095;54;20984;-65
2024/01/15 05:27:36;;;;;;;19.42;8.18;;;3.60;66.40;;;;;;2508905;54;22380;-67
2024/01/15 05:30:03;;;;;;;21.77;8.90;;;3.60;66.50;;;;;;2277392;56;20937;-64
2024/01/15 05:32:30;;;;;;;19.95;7.87;;;3.60;66.40;;;;;;2276615;56;21000;-66
2024/01/15 05:34:56;;;;;;;22.65;8.45;;;3.70;66.50;;;;;;2509971;54;20963;-67
2024/01/15 05:37:22;;;;;;;22.00;8.80;;;3.70;66.50;;;;;;2276869;56;21028;-67
2024/01/15 05:39:49;;;;;;;23.00;9.63;;;3.70;66.40;;;;;;2510334;54;20985;-66
2024/01/15 05:42:15;;;;;;;19.55;8.20;;;3.70;66.30;;;;;;2279538;54;21016;-66
2024/01/15 05:44:42;;;;;;;21.73;9.00;;;3.70;66.30;;;;;;2509800;55;20984;-66
2024/01/15 05:47:14;;;;;;;19.37;7.85;;;3.80;66.30;;;;;;2510397;54;21469;-67
2024/01/15 05:49:40;;;;;;;18.98;8.52;;;3.80;66.30;;;;;;2277514;56;21087;-66
2024/01/15 05:52:07;;;;;;;22.02;8.77;;;3.80;66.20;;;;;;2277574;55;21932;-66
2024/01/15 05:54:33;;;;;;;21.73;8.85;;;3.80;66.20;;;;;;2508996;54;21036;-68
2024/01/15 05:57:00;;;;;;;22.45;8.90;;;3.80;66.10;;;;;;2278207;55;21063;-66
2024/01/15 05:59:26;;;;;;;17.83;8.40;;;3.90;66.40;;;;;;2277219;56;20952;-65
2024/01/15 06:01:53;;;;;;;20.95;8.02;;;3.90;66.20;;;;;;2277642;56;20968;-66
2024/01/15 06:04:20;;;;;;;21.48;8.43;;;3.90;66.20;;;;;;2276890;55;20988;-67
2024/01/15 06:06:46;;;;;;;19.25;8.98;;;3.90;66.10;;;;;;2509125;54;20961;-65
2024/01/15 06:09:13;;;;;;;18.33;7.55;;;3.90;66.10;;;;;;2277698;55;20956;-65
2024/01/15 06:11:39;;;;;;;17.77;8.45;;;3.90;66.10;;;;;;2278063;55;21366;-67
2024/01/15 06:14:06;;;;;;;17.12;7.80;;;4.00;66.10;;;;;;2276721;55;20976;-66
2024/01/15 06:16:32;;;;;;;19.12;8.07;;;4.00;66.10;;;;;;2508824;54;20955;-66
2024/01/15 06:18:59;;;;;;;17.58;8.02;;;4.00;66.10;;;;;;2278377;55;21552;-65
2024/01/15 06:21:25;;;;;;;20.17;8.07;;;4.00;66.10;;;;;;2276807;56;20960;-67
2024/01/15 06:23:51;;;;;;;19.35;8.20;;;4.00;66.00;;;;;;2509553;54;20916;-65
2024/01/15 06:26:17;;;;;;;19.50;7.75;;;4.00;66.00;;;;;;2277149;55;20953;-65
2024/01/15 06:28:44;;;;;;;18.02;8.00;;;4.00;65.90;;;;;;2276739;55;20940;-66
2024/01/15 06:31:10;;;;;;;18.65;7.75;;;4.10;66.00;;;;;;2277187;55;20944;-66
2024/01/15 06:33:38;;;;;;;14.98;6.65;;;4.10;66.00;;;;;;2276962;55;21082;-67
2024/01/15 06:36:05;;;;;;;19.00;7.32;;;4.10;65.90;;;;;;2509050;54;21028;-66
2024/01/15 06:38:31;;;;;;;18.37;7.37;;;4.10;65.80;;;;;;2509121;54;20960;-66
2024/01/15 06:40:58;;;;;;;15.20;6.78;;;4.10;65.80;;;;;;2277151;56;20984;-66
2024/01/15 06:43:24;;;;;;;16.65;6.47;;;4.10;65.80;;;;;;2277498;55;21372;-66
2024/01/15 06:45:51;;;;;;;17.00;7.43;;;4.10;65.70;;;;;;2280205;55;20936;-65
2024/01/15 06:48:17;;;;;;;15.70;6.60;;;4.20;65.80;;;;;;2277466;55;21443;-65
2024/01/15 06:50:44;;;;;;;17.12;6.72;;;4.20;65.80;;;;;;2285959;55;20946;-66
2024/01/15 06:53:10;;;;;;;13.20;5.57;;;4.20;65.80;;;;;;2279330;55;21036;-67
2024/01/15 06:55:38;;;;;;;11.80;5.53;;;4.20;65.80;;;;;;2277161;56;20944;-67
2024/01/15 06:58:04;;;;;;;12.43;5.55;;;4.20;65.80;;;;;;2277668;56;20968;-66
2024/01/15 07:00:30;;;;;;;11.27;4.57;;;4.20;65.80;;;;;;2277180;55;20956;-65
2024/01/15 07:02:59;;;;;;;9.05;4.20;;;4.30;65.90;;;;;;2509731;54;21024;-65
2024/01/15 07:05:26;;;;;;;11.32;4.78;;;4.30;65.90;;;;;;2277140;56;20953;-66
2024/01/15 07:07:52;;;;;;;9.73;4.40;;;4.30;65.80;;;;;;2511784;54;21017;-66
2024/01/15 07:10:34;;;;;;;10.43;4.18;;;4.30;65.80;;;;;;2511904;53;21034;-65
2024/01/15 07:13:02;;;;;;;11.35;4.72;;;4.40;65.90;;;;;;2279547;55;20933;-66
2024/01/15 07:15:30;;;;;;;10.38;4.35;;;4.40;65.90;;;;;;2276998;56;20928;-67
2024/01/15 07:17:56;;;;;;;9.45;4.00;;;4.40;65.90;;;;;;2277133;56;20951;-65
2024/01/15 07:20:22;;;;;;;8.50;4.28;;;4.40;65.80;;;;;;2276749;56;21725;-67
2024/01/15 07:22:49;;;;;;;11.80;4.37;;;4.40;65.80;;;;;;2282956;55;20998;-66
2024/01/15 07:25:16;;;;;;;11.20;4.37;;;4.40;65.80;;;;;;2279261;55;21016;-66
2024/01/15 07:27:44;;;;;;;12.35;4.97;;;4.50;65.90;;;;;;2277155;55;20956;-66
2024/01/15 07:30:13;;;;;;;14.43;5.35;;;4.50;65.80;;;;;;2509820;54;21021;-66
2024/01/15 07:32:40;;;;;;;15.50;5.45;;;4.50;65.70;;;;;;2277367;56;20955;-66
2024/01/15 07:35:08;;;;;;;16.42;6.32;;;4.50;65.70;;;;;;2280841;55;21008;-66
2024/01/15 07:37:35;;;;;;;16.67;6.62;;;4.60;65.60;;;;;;2510452;53;21857;-67
2024/01/15 07:40:04;;;;;;;19.70;7.55;;;4.60;65.60;;;;;;2276581;55;20956;-68
2024/01/15 07:42:30;;;;;;;19.85;7.87;;;4.60;65.60;;;;;;2280064;56;21461;-66
2024/01/15 07:44:57;;;;;;;20.70;8.32;;;4.60;65.60;;;;;;2280381;55;21013;-68
2024/01/15 07:47:23;;;;;;;18.42;7.87;;;4.60;65.60;;;;;;2508266;54;21008;-67
2024/01/15 07:49:50;;;;;;;19.10;9.40;;;4.60;65.60;;;;;;2282871;54;20948;-66
2024/01/15 07:52:16;;;;;;;20.00;8.27;;;4.60;65.50;;;;;;2508823;54;20971;-65
2024/01/15 07:54:42;;;;;;;19.98;7.95;;;4.60;65.50;;;;;;2512853;54;20962;-66
2024/01/15 07:57:08;;;;;;;20.58;8.77;;;4.60;65.40;;;;;;2282017;54;20986;-66
2024/01/15 07:59:36;;;;;;;22.50;10.10;;;4.70;65.50;;;;;;2279320;55;21016;-67
2024/01/15 08:02:06;;;;;;;22.70;9.68;;;4.70;65.40;;;;;;2509760;54;20956;-66
2024/01/15 08:04:32;;;;;;;19.27;8.32;;;4.70;65.40;;;;;;2509852;54;20971;-67
2024/01/15 08:06:59;;;;;;;22.77;10.18;;;4.70;65.50;;;;;;2277688;55;20976;-67
2024/01/15 08:09:25;;;;;;;27.58;11.07;;;4.70;65.50;;;;;;2277540;55;21445;-67
2024/01/15 08:11:52;;;;;;;24.37;10.60;;;4.70;65.50;;;;;;2509154;54;20984;-67
2024/01/15 08:14:22;;;;;;;28.17;10.55;;;4.70;65.60;;;;;;2282351;55;21022;-66
2024/01/15 08:16:48;;;;;;;23.85;10.52;;;4.70;65.40;;;;;;2277178;55;21031;-68
2024/01/15 08:19:14;;;;;;;23.40;10.13;;;4.70;65.40;;;;;;2510019;54;20961;-67
2024/01/15 08:21:40;;;;;;;22.75;9.95;;;4.70;65.30;;;;;;2277084;55;20957;-67
2024/01/15 08:24:07;;;;;;;22.90;9.40;;;4.70;65.30;;;;;;2277262;55;21518;-67
2024/01/15 08:26:34;;;;;;;23.62;9.82;;;4.70;65.30;;;;;;2277390;56;20940;-66
2024/01/15 08:29:00;;;;;;;22.40;9.32;;;4.80;65.40;;;;;;2277519;55;21011;-67
2024/01/15 08:31:27;;;;;;;21.80;8.63;;;4.80;65.30;;;;;;2509563;54;22000;-65
2024/01/15 08:33:55;;;;;;;21.90;9.20;;;4.80;65.30;;;;;;2509377;55;20952;-67
2024/01/15 08:36:24;;;;;;;20.45;8.55;;;4.80;65.30;;;;;;2277472;55;20956;-65
2024/01/15 08:38:50;;;;;;;22.90;8.75;;;4.80;65.30;;;;;;2277630;56;20963;-67
2024/01/15 08:41:16;;;;;;;20.42;8.90;;;4.80;65.30;;;;;;2513518;53;21039;-66
2024/01/15 08:43:43;;;;;;;18.17;7.68;;;4.80;65.30;;;;;;2509552;54;20940;-65
2024/01/15 08:46:09;;;;;;;18.55;7.40;;;4.80;65.40;;;;;;2277457;56;21276;-68
2024/01/15 08:48:36;;;;;;;22.65;8.45;;;4.80;66.10;;;;;;2511497;53;20965;-66
2024/01/15 08:51:04;;;;;;;19.52;7.55;;;4.90;65.60;;;;;;2278178;55;20962;-67
2024/01/15 08:53:30;;;;;;;20.77;9.15;;;4.90;65.50;;;;;;2277691;56;20956;-66
2024/01/15 08:55:57;;;;;;;20.52;8.15;;;4.90;65.50;;;;;;2509844;55;21745;-67
2024/01/15 08:58:24;;;;;;;22.55;8.57;;;4.90;65.50;;;;;;2277910;55;21000;-66
2024/01/15 09:00:50;;;;;;;23.87;9.15;;;4.90;65.50;;;;;;2277559;56;20916;-66
2024/01/15 09:03:17;;;;;;;44.38;15.45;;;4.90;65.50;;;;;;2276624;55;21340;-65
2024/01/15 09:05:43;;;;;;;58.13;19.58;;;5.00;65.70;;;;;;2281158;55;21048;-66
2024/01/15 09:08:10;;;;;;;34.92;14.80;;;5.00;65.70;;;;;;2280904;54;21021;-67
2024/01/15 09:10:36;;;;;;;167.13;48.42;;;5.00;65.70;;;;;;2277480;55;20976;-67
2024/01/15 09:13:04;;;;;;;72.47;25.98;;;5.00;65.70;;;;;;2280901;56;20968;-67
2024/01/15 09:15:33;;;;;;;50.63;22.25;;;5.00;65.70;;;;;;2280366;54;20916;-66
2024/01/15 09:18:02;;;;;;;36.60;14.90;;;5.00;65.60;;;;;;2277112;56;22228;-66
2024/01/15 09:20:31;;;;;;;31.17;12.37;;;5.10;65.70;;;;;;2509700;54;21005;-66
2024/01/15 09:22:57;;;;;;;25.80;10.80;;;5.10;65.70;;;;;;2508300;55;21003;-65
2024/01/15 09:25:23;;;;;;;21.77;9.43;;;5.10;65.70;;;;;;2509743;54;21760;-66
2024/01/15 09:27:50;;;;;;;21.27;9.90;;;5.10;65.70;;;;;;2508235;54;21008;-67
2024/01/15 09:30:19;;;;;;;24.05;9.10;;;5.10;65.70;;;;;;2510144;54;21028;-66
2024/01/15 09:32:46;;;;;;;24.45;9.45;;;5.10;65.60;;;;;;2280759;55;20928;-67
2024/01/15 09:35:13;;;;;;;17.20;8.25;;;5.10;65.50;;;;;;2276855;55;20972;-67
2024/01/15 09:37:39;;;;;;;20.52;8.73;;;5.10;65.50;;;;;;2514029;54;20966;-66
2024/01/15 09:40:08;;;;;;;22.83;9.38;;;5.10;65.50;;;;;;2277530;56;20960;-67
2024/01/15 09:42:34;;;;;;;25.40;10.05;;;5.10;65.40;;;;;;2284632;55;20950;-66
2024/01/15 09:45:03;;;;;;;20.55;9.20;;;5.10;65.40;;;;;;2277130;56;20956;-67
2024/01/15 09:47:29;;;;;;;22.85;10.13;;;5.10;65.40;;;;;;2510040;54;20960;-68
2024/01/15 09:49:58;;;;;;;23.52;10.18;;;5.10;65.50;;;;;;2508930;54;20992;-66
2024/01/15 09:52:24;;;;;;;29.02;11.77;;;5.10;65.40;;;;;;2275787;56;21007;-66
2024/01/15 09:54:52;;;;;;;24.10;10.27;;;5.10;65.30;;;;;;2509081;54;21008;-68
2024/01/15 09:57:18;;;;;;;27.05;11.98;;;5.20;65.40;;;;;;2276890;56;21398;-67
2024/01/15 09:59:47;;;;;;;21.83;10.25;;;5.10;65.20;;;;;;2509419;54;20959;-66
2024/01/15 10:02:17;;;;;;;23.33;9.88;;;5.10;65.30;;;;;;2509377;54;21024;-67
2024/01/15 10:04:44;;;;;;;24.15;10.07;;;5.10;65.30;;;;;;2277554;55;20996;-66
2024/01/15 10:07:11;;;;;;;23.27;10.50;;;5.20;65.40;;;;;;2509029;54;20964;-66
2024/01/15 10:09:38;;;;;;;21.67;10.38;;;5.10;65.30;;;;;;2277124;56;21000;-66
2024/01/15 10:12:04;;;;;;;27.58;11.23;;;5.10;65.40;;;;;;2509315;54;21000;-66
2024/01/15 10:14:32;;;;;;;23.67;10.73;;;5.10;65.40;;;;;;2509713;54;21004;-68
2024/01/15 10:16:58;;;;;;;29.67;11.70;;;5.20;65.50;;;;;;2509288;54;20992;-66
2024/01/15 10:19:25;;;;;;;22.50;10.98;;;5.20;65.50;;;;;;2277429;56;21024;-67
2024/01/15 10:21:51;;;;;;;22.55;9.85;;;5.20;65.50;;;;;;2277133;55;20976;-66
2024/01/15 10:24:18;;;;;;;21.33;9.23;;;5.20;65.50;;;;;;2277287;56;21319;-68
2024/01/15 10:26:44;;;;;;;24.40;9.30;;;5.20;65.60;;;;;;2277688;56;20968;-67
2024/01/15 10:29:14;;;;;;;19.92;8.90;;;5.20;65.50;;;;;;2276680;55;21043;-66
2024/01/15 10:31:40;;;;;;;19.00;8.43;;;5.20;65.60;;;;;;2509770;54;20940;-67
2024/01/15 10:34:12;;;;;;;22.87;10.13;;;5.20;65.70;;;;;;2276657;56;21035;-68
2024/01/15 10:36:41;;;;;;;26.80;11.65;;;5.20;66.40;;;;;;2277526;56;21693;-68
2024/01/15 10:39:07;;;;;;;28.55;12.77;;;5.30;65.80;;;;;;2277150;55;21484;-67
2024/01/15 10:41:34;;;;;;;25.15;12.05;;;5.30;65.70;;;;;;2277678;56;21024;-67
2024/01/15 10:44:00;;;;;;;23.55;11.25;;;5.30;65.60;;;;;;2276867;56;21032;-66
2024/01/15 10:46:29;;;;;;;31.75;12.50;;;5.30;65.70;;;;;;2283889;55;20957;-67
2024/01/15 10:48:56;;;;;;;21.52;9.95;;;5.30;65.70;;;;;;2277228;56;20948;-68
2024/01/15 10:51:22;;;;;;;19.48;9.27;;;5.30;65.60;;;;;;2509222;55;20961;-67
2024/01/15 10:53:49;;;;;;;16.30;7.57;;;5.40;65.70;;;;;;2277444;55;21072;-67
2024/01/15 10:56:15;;;;;;;16.77;8.20;;;5.40;65.70;;;;;;2277291;55;20961;-66
2024/01/15 10:58:42;;;;;;;16.55;7.53;;;5.40;65.60;;;;;;2277953;55;20964;-67
2024/01/15 11:01:08;;;;;;;25.62;11.10;;;5.40;65.70;;;;;;2277241;56;21516;-66
2024/01/15 11:03:34;;;;;;;21.85;10.00;;;5.40;65.60;;;;;;2510269;54;20940;-66
2024/01/15 11:06:01;;;;;;;18.92;8.45;;;5.40;65.60;;;;;;2276725;55;21776;-68
2024/01/15 11:08:27;;;;;;;16.95;8.48;;;5.50;65.70;;;;;;2277760;55;21104;-67
2024/01/15 11:10:54;;;;;;;19.23;8.82;;;5.50;65.70;;;;;;2277486;56;21774;-67
2024/01/15 11:13:22;;;;;;;15.43;8.00;;;5.50;65.70;;;;;;2509610;54;20952;-67
2024/01/15 11:16:23;;;;;;;15.05;7.28;;;5.50;65.60;;;;;;2511539;54;20993;-67
2024/01/15 11:19:52;;;;;;;15.10;7.40;;;5.60;64.90;;;;;;2511304;54;20948;-67
2024/01/15 11:24:14;;;;;;;14.50;6.75;;;5.60;64.70;;;;;;2509403;54;21800;-66
2024/01/15 11:26:46;;;;;;;16.30;7.53;;;5.60;64.60;;;;;;2277588;56;20944;-67
2024/01/15 11:29:32;;;;;;;13.57;6.57;;;5.60;65.40;;;;;;2507981;54;20960;-68
2024/01/15 11:32:08;;;;;;;15.80;7.80;;;5.60;65.00;;;;;;2277038;56;21354;-67
2024/01/15 11:35:01;;;;;;;16.98;7.95;;;5.60;65.30;;;;;;2276892;55;20952;-66
2024/01/15 11:37:47;;;;;;;16.27;7.62;;;5.60;65.00;;;;;;2509755;54;20968;-67
2024/01/15 11:40:17;;;;;;;16.45;7.80;;;5.60;65.40;;;;;;2275882;55;21524;-66
2024/01/15 11:42:44;;;;;;;17.23;8.35;;;5.60;65.50;;;;;;2509668;54;21012;-66
2024/01/15 11:45:10;;;;;;;18.55;8.35;;;5.60;65.50;;;;;;2276850;55;20940;-68
2024/01/15 11:48:43;;;;;;;17.17;8.68;;;5.60;65.50;;;;;;2277412;56;21016;-66
2024/01/15 11:51:11;;;;;;;19.48;9.13;;;5.70;64.70;;;;;;2508418;54;20997;-67
2024/01/15 11:53:48;;;;;;;18.35;9.15;;;5.70;65.50;;;;;;2277860;56;20968;-66
2024/01/15 11:56:16;;;;;;;17.98;8.65;;;5.70;65.20;;;;;;2276907;55;20996;-66
2024/01/15 11:58:43;;;;;;;17.85;8.65;;;5.70;65.40;;;;;;2277202;55;20960;-67
2024/01/15 12:01:10;;;;;;;16.42;7.30;;;5.70;65.50;;;;;;2276263;55;22121;-67
2024/01/15 12:03:37;;;;;;;17.35;8.15;;;5.80;65.60;;;;;;2276875;55;20956;-68
2024/01/15 12:06:08;;;;;;;14.10;7.22;;;5.70;65.40;;;;;;2276810;55;20924;-68
2024/01/15 12:08:35;;;;;;;14.00;6.57;;;5.80;65.40;;;;;;2511709;54;21505;-66
2024/01/15 12:11:03;;;;;;;13.07;5.68;;;5.80;65.40;;;;;;2276372;56;21012;-66
2024/01/15 12:13:29;;;;;;;10.48;5.07;;;5.80;65.40;;;;;;2277957;55;20973;-67
2024/01/15 12:15:56;;;;;;;11.93;5.70;;;5.80;65.50;;;;;;2277527;55;21303;-67
2024/01/15 12:18:22;;;;;;;11.15;5.70;;;5.60;65.30;;;;;;2276842;55;21264;-66
2024/01/15 12:20:48;;;;;;;13.38;5.95;;;5.80;65.40;;;;;;2277555;55;20932;-66
2024/01/15 12:23:15;;;;;;;11.32;5.28;;;5.80;65.40;;;;;;2509153;54;21835;-68
2024/01/15 12:25:41;;;;;;;11.73;4.75;;;5.80;65.30;;;;;;2277863;55;20959;-66
2024/01/15 12:28:07;;;;;;;8.88;4.32;;;5.80;65.50;;;;;;2509131;55;20949;-67
2024/01/15 12:30:37;;;;;;;7.80;4.30;;;5.80;65.50;;;;;;2509397;54;21024;-67
2024/01/15 12:33:06;;;;;;;7.60;3.67;;;5.80;65.40;;;;;;2277578;55;20956;-67
2024/01/15 12:35:33;;;;;;;7.50;3.53;;;5.80;65.60;;;;;;2277402;56;20960;-68
2024/01/15 12:38:02;;;;;;;7.05;3.22;;;5.80;65.60;;;;;;2510113;54;20984;-66
2024/01/15 12:40:29;;;;;;;8.40;3.60;;;5.80;65.60;;;;;;2508646;54;20945;-68
2024/01/15 12:42:55;;;;;;;8.80;4.30;;;5.80;65.60;;;;;;2510051;54;20928;-67
2024/01/15 12:45:23;;;;;;;7.75;4.03;;;5.80;65.40;;;;;;2278109;56;20952;-68
2024/01/15 12:47:51;;;;;;;8.50;4.05;;;5.80;65.50;;;;;;2509232;54;21827;-66